createdAt,value
2018-09-17T00:02:10.809Z,55.52
2018-09-17T00:04:40.203Z,55.90
2018-09-17T00:07:09.727Z,55.61
2018-09-17T00:09:44.283Z,55.29
2018-09-17T00:12:13.794Z,55.78
2018-09-17T00:14:43.350Z,55.33
2018-09-17T00:17:13.104Z,54.90
2018-09-17T00:19:42.917Z,54.39
2018-09-17T00:22:13.157Z,54.92
2018-09-17T00:24:42.435Z,55.67
2018-09-17T00:27:14.997Z,55.72
2018-09-17T00:29:44.977Z,55.28
2018-09-17T00:32:17.021Z,56.45
2018-09-17T00:34:47.343Z,55.97
2018-09-17T00:37:16.874Z,55.63
2018-09-17T00:39:47.811Z,55.46
2018-09-17T00:42:17.108Z,55.90
2018-09-17T00:44:46.945Z,55.91
2018-09-17T00:47:16.564Z,56.17
2018-09-17T00:49:46.497Z,56.32
2018-09-17T00:52:16.481Z,55.86
2018-09-17T00:54:46.076Z,56.22
2018-09-17T00:57:15.493Z,55.19
2018-09-17T00:59:50.000Z,55.12
2018-09-17T01:02:20.251Z,54.76
2018-09-17T01:04:50.479Z,54.58
2018-09-17T01:07:20.272Z,55.39
2018-09-17T01:09:49.617Z,54.96
2018-09-17T01:12:19.182Z,55.48
2018-09-17T01:14:48.957Z,55.51
2018-09-17T01:17:18.687Z,54.66
2018-09-17T01:19:48.927Z,54.87
2018-09-17T01:22:20.067Z,54.49
2018-09-17T01:24:51.566Z,54.36
2018-09-17T01:27:21.638Z,54.40
2018-09-17T01:29:53.346Z,55.28
2018-09-17T01:32:24.419Z,55.49
2018-09-17T01:34:55.336Z,55.48
2018-09-17T01:37:25.572Z,56.11
2018-09-17T01:39:55.491Z,56.06
2018-09-17T01:42:25.525Z,56.29
2018-09-17T01:44:55.783Z,55.88
2018-09-17T01:47:25.433Z,55.44
2018-09-17T01:49:54.986Z,55.99
2018-09-17T01:52:24.767Z,55.76
2018-09-17T01:54:54.817Z,56.80
2018-09-17T01:57:25.684Z,57.09
2018-09-17T01:59:57.089Z,57.37
2018-09-17T02:02:28.762Z,58.29
2018-09-17T02:04:58.439Z,58.11
2018-09-17T02:07:27.646Z,57.87
2018-09-17T02:09:57.031Z,57.90
2018-09-17T02:12:26.908Z,57.83
2018-09-17T02:14:56.918Z,58.39
2018-09-17T02:17:27.024Z,59.13
2018-09-17T02:19:56.573Z,58.91
2018-09-17T02:22:26.438Z,58.29
2018-09-17T02:24:55.992Z,58.83
2018-09-17T02:27:25.542Z,59.23
2018-09-17T02:29:55.020Z,58.57
2018-09-17T02:32:24.836Z,58.81
2018-09-17T02:34:56.313Z,58.41
2018-09-17T02:37:26.231Z,58.99
2018-09-17T02:39:55.640Z,58.10
2018-09-17T02:42:25.042Z,57.94
2018-09-17T02:44:54.596Z,58.67
2018-09-17T02:47:24.330Z,59.40
2018-09-17T02:49:53.875Z,59.37
2018-09-17T02:52:23.720Z,59.77
2018-09-17T02:54:53.135Z,59.87
2018-09-17T02:57:23.182Z,59.88
2018-09-17T02:59:53.234Z,59.41
2018-09-17T03:02:23.705Z,59.79
2018-09-17T03:04:54.515Z,59.49
2018-09-17T03:07:25.262Z,59.21
2018-09-17T03:09:55.532Z,59.71
2018-09-17T03:12:25.063Z,58.73
2018-09-17T03:14:56.957Z,58.14
2018-09-17T03:17:26.619Z,57.84
2018-09-17T03:20:01.287Z,57.48
2018-09-17T03:22:38.944Z,57.30
2018-09-17T03:25:09.942Z,57.04
2018-09-17T03:27:46.780Z,57.63
2018-09-17T03:30:17.642Z,58.02
2018-09-17T03:32:47.487Z,57.55
2018-09-17T03:35:17.075Z,57.88
2018-09-17T03:37:46.860Z,58.93
2018-09-17T03:40:16.231Z,58.84
2018-09-17T03:42:45.663Z,58.49
2018-09-17T03:45:16.593Z,59.13
2018-09-17T03:47:46.539Z,58.19
2018-09-17T03:50:16.006Z,57.92
2018-09-17T03:52:45.411Z,58.21
2018-09-17T03:55:14.887Z,58.11
2018-09-17T03:57:44.459Z,57.84
2018-09-17T04:00:17.300Z,57.33
2018-09-17T04:02:47.140Z,57.41
2018-09-17T04:05:16.756Z,57.12
2018-09-17T04:07:46.380Z,57.55
2018-09-17T04:10:16.904Z,57.78
2018-09-17T04:12:47.483Z,57.40
2018-09-17T04:15:17.258Z,58.14
2018-09-17T04:17:48.136Z,58.17
2018-09-17T04:20:17.637Z,58.54
2018-09-17T04:22:47.143Z,58.01
2018-09-17T04:25:16.618Z,58.21
2018-09-17T04:27:46.146Z,57.96
2018-09-17T04:30:23.714Z,57.52
2018-09-17T04:32:54.246Z,58.55
2018-09-17T04:35:23.701Z,59.34
2018-09-17T04:37:53.043Z,58.98
2018-09-17T04:40:22.527Z,58.27
2018-09-17T04:42:51.949Z,58.62
2018-09-17T04:45:21.630Z,58.57
2018-09-17T04:47:51.038Z,58.83
2018-09-17T04:50:20.535Z,59.24
2018-09-17T04:52:55.448Z,58.35
2018-09-17T04:55:29.368Z,58.82
2018-09-17T04:57:59.341Z,58.42
2018-09-17T05:00:30.885Z,58.62
2018-09-17T05:03:00.490Z,58.20
2018-09-17T05:05:30.300Z,57.88
2018-09-17T05:07:59.939Z,58.62
2018-09-17T05:10:29.679Z,58.98
2018-09-17T05:12:59.614Z,58.58
2018-09-17T05:15:29.310Z,58.73
2018-09-17T05:17:59.337Z,59.46
2018-09-17T05:20:31.498Z,58.36
2018-09-17T05:23:01.501Z,58.12
2018-09-17T05:25:31.196Z,58.40
2018-09-17T05:28:01.116Z,59.02
2018-09-17T05:30:32.735Z,59.10
2018-09-17T05:33:06.436Z,58.62
2018-09-17T05:35:36.772Z,58.07
2018-09-17T05:38:11.513Z,57.83
2018-09-17T05:40:40.970Z,56.84
2018-09-17T05:43:12.523Z,56.83
2018-09-17T05:45:42.523Z,56.76
2018-09-17T05:48:17.952Z,57.38
2018-09-17T05:50:48.721Z,57.66
2018-09-17T05:53:23.441Z,56.72
2018-09-17T05:55:54.213Z,57.14
2018-09-17T05:58:25.912Z,56.77
2018-09-17T06:00:55.712Z,56.95
2018-09-17T06:03:25.148Z,56.12
2018-09-17T06:05:55.672Z,56.12
2018-09-17T06:08:25.420Z,55.86
2018-09-17T06:10:54.804Z,56.12
2018-09-17T06:13:25.693Z,55.17
2018-09-17T06:15:57.886Z,55.19
2018-09-17T06:18:27.674Z,54.33
2018-09-17T06:20:57.340Z,55.07
2018-09-17T06:23:26.813Z,55.30
2018-09-17T06:25:56.975Z,54.34
2018-09-17T06:28:27.220Z,53.70
2018-09-17T06:30:56.992Z,53.79
2018-09-17T06:33:32.416Z,52.18
2018-09-17T06:36:02.169Z,51.68
2018-09-17T06:38:41.490Z,51.74
2018-09-17T06:41:13.411Z,51.39
2018-09-17T06:43:45.104Z,50.90
2018-09-17T06:46:15.677Z,50.49
2018-09-17T06:48:45.511Z,49.34
2018-09-17T06:51:15.555Z,48.41
2018-09-17T06:53:45.611Z,48.22
2018-09-17T06:56:15.114Z,47.45
2018-09-17T06:58:45.017Z,48.57
2018-09-17T07:01:26.619Z,47.03
2018-09-17T07:03:59.881Z,47.52
2018-09-17T07:06:29.851Z,46.93
2018-09-17T07:09:04.052Z,45.79
2018-09-17T07:11:36.110Z,46.18
2018-09-17T07:14:05.785Z,45.65
2018-09-17T07:16:44.703Z,44.82
2018-09-17T07:19:14.562Z,45.08
2018-09-17T07:21:46.532Z,44.92
2018-09-17T07:24:17.477Z,44.01
2018-09-17T07:27:08.221Z,43.19
2018-09-17T07:29:39.795Z,43.51
2018-09-17T07:32:10.513Z,43.13
2018-09-17T07:34:40.763Z,42.42
2018-09-17T07:37:17.749Z,42.51
2018-09-17T07:39:51.426Z,42.11
2018-09-17T07:42:21.410Z,43.34
2018-09-17T07:44:51.541Z,43.06
2018-09-17T07:47:21.419Z,41.55
2018-09-17T07:49:52.006Z,41.76
2018-09-17T07:52:21.983Z,41.23
2018-09-17T07:54:53.535Z,41.65
2018-09-17T07:57:23.486Z,41.81
2018-09-17T07:59:54.341Z,41.37
2018-09-17T08:02:23.985Z,40.14
2018-09-17T08:05:00.274Z,39.79
2018-09-17T08:07:33.121Z,39.96
2018-09-17T08:10:06.427Z,39.78
2018-09-17T08:12:37.801Z,39.36
2018-09-17T08:15:16.705Z,40.50
2018-09-17T08:17:48.832Z,39.86
2018-09-17T08:20:18.396Z,38.67
2018-09-17T08:22:53.471Z,38.01
2018-09-17T08:25:26.290Z,38.89
2018-09-17T08:28:00.097Z,38.46
2018-09-17T08:30:38.642Z,37.55
2018-09-17T08:33:09.845Z,37.31
2018-09-17T08:35:41.608Z,37.47
2018-09-17T08:38:14.719Z,37.69
2018-09-17T08:40:57.919Z,39.10
2018-09-17T08:43:31.717Z,38.47
2018-09-17T08:46:17.567Z,38.19
2018-09-17T08:48:49.278Z,37.40
2018-09-17T08:51:21.701Z,38.61
2018-09-17T08:53:52.582Z,37.42
2018-09-17T08:56:29.862Z,36.94
2018-09-17T08:59:11.268Z,36.41
2018-09-17T09:01:49.813Z,35.43
2018-09-17T09:04:26.433Z,35.11
2018-09-17T09:07:10.747Z,35.22
2018-09-17T09:09:51.661Z,34.87
2018-09-17T09:12:27.668Z,34.35
2018-09-17T09:15:04.798Z,33.64
2018-09-17T09:17:38.332Z,34.05
2018-09-17T09:20:18.311Z,33.16
2018-09-17T09:22:53.240Z,33.14
2018-09-17T09:25:44.168Z,33.17
2018-09-17T09:28:25.321Z,31.89
2018-09-17T09:31:13.497Z,32.71
2018-09-17T09:39:53.206Z,31.33
2018-09-17T09:42:41.533Z,30.39
2018-09-17T09:45:27.665Z,30.36
2018-09-17T09:48:18.677Z,30.17
2018-09-17T09:50:57.507Z,29.18
2018-09-17T09:53:32.602Z,29.84
2018-09-17T09:56:10.493Z,29.28
2018-09-17T09:59:01.449Z,29.75
2018-09-17T10:01:47.646Z,28.36
2018-09-17T10:04:27.714Z,29.48
2018-09-17T10:10:05.666Z,28.71
2018-09-17T10:12:45.614Z,28.18
2018-09-17T10:15:24.806Z,27.70
2018-09-17T10:20:44.458Z,27.84
2018-09-17T10:23:17.662Z,27.59
2018-09-17T10:25:50.821Z,27.31
2018-09-17T10:28:26.736Z,26.89
2018-09-17T10:30:59.480Z,26.11
2018-09-17T10:36:26.371Z,25.08
2018-09-17T10:38:59.484Z,25.12
2018-09-17T10:41:50.544Z,25.06
2018-09-17T10:44:26.197Z,24.66
2018-09-17T10:47:02.367Z,25.64
2018-09-17T10:49:35.674Z,24.80
2018-09-17T10:52:11.452Z,25.02
2018-09-17T10:54:45.404Z,24.16
2018-09-17T10:57:16.963Z,23.91
2018-09-17T10:59:48.853Z,23.93
2018-09-17T11:02:21.663Z,25.14
2018-09-17T11:04:55.789Z,25.11
2018-09-17T11:07:40.795Z,23.32
2018-09-17T11:12:59.919Z,24.27
2018-09-17T11:15:36.021Z,23.90
2018-09-17T11:18:10.250Z,24.72
2018-09-17T11:20:48.371Z,23.60
2018-09-17T11:23:18.532Z,24.69
2018-09-17T11:25:50.434Z,25.94
2018-09-17T11:28:28.643Z,25.05
2018-09-17T11:31:13.511Z,23.38
2018-09-17T11:33:49.423Z,22.60
2018-09-17T11:36:22.421Z,23.20
2018-09-17T11:39:00.541Z,22.56
2018-09-17T11:41:32.405Z,22.11
2018-09-17T11:44:06.196Z,21.30
2018-09-17T11:46:36.597Z,22.32
2018-09-17T11:49:16.047Z,21.10
2018-09-17T11:51:48.099Z,20.34
2018-09-17T11:54:26.452Z,19.80
2018-09-17T11:57:06.463Z,19.73
2018-09-17T11:59:40.401Z,20.75
2018-09-17T12:02:18.770Z,21.60
2018-09-17T12:05:00.611Z,20.88
2018-09-17T12:07:41.458Z,22.48
2018-09-17T12:10:14.067Z,20.75
2018-09-17T12:12:50.631Z,20.17
2018-09-17T12:15:22.810Z,19.57
2018-09-17T12:17:56.445Z,20.59
2018-09-17T12:20:27.329Z,19.35
2018-09-17T12:23:00.465Z,21.53
2018-09-17T12:25:38.607Z,21.64
2018-09-17T12:28:10.275Z,20.80
2018-09-17T12:30:44.658Z,20.48
2018-09-17T12:33:14.807Z,19.52
2018-09-17T12:35:55.576Z,18.10
2018-09-17T12:38:28.541Z,18.69
2018-09-17T12:41:10.783Z,18.03
2018-09-17T12:43:40.798Z,19.39
2018-09-17T12:46:12.341Z,18.21
2018-09-17T12:48:49.806Z,18.66
2018-09-17T12:51:20.972Z,19.27
2018-09-17T12:54:23.516Z,18.42
2018-09-17T12:56:54.535Z,18.23
2018-09-17T12:59:30.711Z,17.94
2018-09-17T13:02:01.333Z,18.83
2018-09-17T13:04:35.406Z,19.36
2018-09-17T13:07:07.701Z,18.74
2018-09-17T13:09:40.041Z,19.07
2018-09-17T13:12:23.864Z,18.79
2018-09-17T13:15:22.024Z,18.46
2018-09-17T13:17:54.091Z,19.98
2018-09-17T13:20:28.450Z,19.20
2018-09-17T13:23:02.532Z,20.52
2018-09-17T13:25:35.827Z,20.19
2018-09-17T13:28:13.489Z,20.06
2018-09-17T13:30:51.799Z,20.25
2018-09-17T13:33:23.238Z,19.88
2018-09-17T13:35:55.247Z,19.71
2018-09-17T13:38:37.256Z,19.99
2018-09-17T13:41:07.568Z,19.79
2018-09-17T13:43:39.206Z,20.14
2018-09-17T13:46:12.193Z,20.04
2018-09-17T13:48:45.500Z,19.94
2018-09-17T13:51:22.460Z,20.50
2018-09-17T13:53:54.103Z,20.60
2018-09-17T13:56:27.514Z,21.63
2018-09-17T13:59:00.300Z,21.35
2018-09-17T14:01:32.844Z,21.93
2018-09-17T14:04:04.298Z,21.97
2018-09-17T14:06:36.638Z,21.66
2018-09-17T14:09:11.978Z,21.52
2018-09-17T14:11:44.505Z,21.78
2018-09-17T14:14:17.013Z,21.26
2018-09-17T14:16:47.873Z,21.32
2018-09-17T14:19:22.196Z,21.71
2018-09-17T14:21:54.765Z,21.61
2018-09-17T14:24:37.834Z,21.57
2018-09-17T14:27:12.340Z,20.86
2018-09-17T14:29:44.687Z,20.74
2018-09-17T14:38:28.764Z,21.87
2018-09-17T14:41:10.882Z,20.86
2018-09-17T14:43:57.554Z,21.23
2018-09-17T14:46:43.656Z,20.93
2018-09-17T14:52:11.524Z,20.79
2018-09-17T14:54:57.663Z,20.65
2018-09-17T14:57:29.589Z,21.03
2018-09-17T15:00:21.108Z,20.79
2018-09-17T15:02:56.397Z,20.80
2018-09-17T15:05:39.236Z,20.87
2018-09-17T15:08:09.364Z,21.26
2018-09-17T15:10:42.392Z,21.71
2018-09-17T15:16:00.011Z,21.42
2018-09-17T15:18:45.420Z,22.08
2018-09-17T15:21:16.243Z,21.26
2018-09-17T15:23:53.646Z,21.82
2018-09-17T15:29:26.143Z,21.85
2018-09-17T15:32:15.983Z,21.66
2018-09-17T15:34:51.190Z,22.84
2018-09-17T15:37:23.492Z,22.58
2018-09-17T15:42:51.839Z,22.02
2018-09-17T15:45:42.673Z,22.62
2018-09-17T15:48:16.456Z,22.66
2018-09-17T15:50:48.378Z,21.77
2018-09-17T15:53:19.271Z,22.11
2018-09-17T15:55:49.635Z,22.17
2018-09-17T15:58:25.572Z,22.13
2018-09-17T16:00:57.203Z,22.44
2018-09-17T16:03:27.153Z,22.88
2018-09-17T16:06:01.499Z,22.51
2018-09-17T16:08:32.174Z,21.96
2018-09-17T16:11:06.095Z,22.64
2018-09-17T16:13:43.317Z,22.45
2018-09-17T16:16:14.819Z,22.24
2018-09-17T16:18:45.912Z,22.42
2018-09-17T16:21:16.452Z,22.70
2018-09-17T16:23:47.625Z,22.00
2018-09-17T16:26:18.966Z,22.69
2018-09-17T16:28:48.904Z,23.15
2018-09-17T16:31:19.908Z,23.63
2018-09-17T16:33:51.873Z,22.90
2018-09-17T16:36:21.462Z,23.28
2018-09-17T16:38:52.673Z,23.67
2018-09-17T16:41:28.659Z,23.31
2018-09-17T16:44:00.345Z,23.86
2018-09-17T16:46:33.061Z,23.67
2018-09-17T16:49:07.437Z,24.14
2018-09-17T16:51:37.881Z,23.83
2018-09-17T16:54:09.702Z,23.50
2018-09-17T16:56:39.361Z,23.75
2018-09-17T16:59:11.024Z,23.66
2018-09-17T17:01:48.420Z,23.82
2018-09-17T17:06:59.049Z,24.29
2018-09-17T17:09:35.111Z,24.48
2018-09-17T17:12:26.117Z,25.20
2018-09-17T17:14:56.688Z,25.09
2018-09-17T17:17:31.514Z,25.42
2018-09-17T17:20:07.045Z,26.32
2018-09-17T17:22:38.376Z,26.06
2018-09-17T17:25:10.031Z,27.12
2018-09-17T17:27:48.501Z,27.00
2018-09-17T17:30:18.286Z,28.22
2018-09-17T17:32:54.509Z,28.05
2018-09-17T17:35:26.085Z,29.05
2018-09-17T17:37:55.721Z,29.72
2018-09-17T17:40:28.425Z,29.78
2018-09-17T17:42:59.170Z,29.07
2018-09-17T17:45:31.531Z,30.64
2018-09-17T17:48:20.793Z,29.74
2018-09-17T17:50:51.555Z,30.82
2018-09-17T17:53:23.327Z,31.64
2018-09-17T17:55:56.198Z,31.25
2018-09-17T17:58:38.507Z,32.36
2018-09-17T18:01:12.303Z,32.95
2018-09-17T18:03:47.983Z,33.07
2018-09-17T18:06:17.753Z,34.12
2018-09-17T18:08:48.209Z,34.80
2018-09-17T18:11:19.672Z,34.57
2018-09-17T18:14:07.360Z,35.26
2018-09-17T18:16:38.290Z,36.12
2018-09-17T18:19:11.342Z,36.18
2018-09-17T18:21:41.864Z,35.85
2018-09-17T18:24:30.330Z,35.96
2018-09-17T18:27:03.155Z,36.21
2018-09-17T18:29:33.314Z,37.16
2018-09-17T18:32:08.520Z,37.79
2018-09-17T18:34:38.908Z,36.96
2018-09-17T18:37:12.738Z,36.85
2018-09-17T18:39:44.249Z,38.25
2018-09-17T18:42:18.515Z,37.39
2018-09-17T18:44:49.454Z,38.25
2018-09-17T18:47:22.223Z,37.95
2018-09-17T18:49:52.779Z,38.65
2018-09-17T18:52:24.394Z,38.42
2018-09-17T18:54:55.357Z,37.91
2018-09-17T18:57:26.157Z,38.41
2018-09-17T18:59:59.339Z,38.95
2018-09-17T19:04:19.198Z,39.12
2018-09-17T19:06:52.553Z,39.50
2018-09-17T19:09:26.452Z,39.61
2018-09-17T19:11:58.167Z,39.82
2018-09-17T19:14:35.045Z,39.64
2018-09-17T19:17:10.292Z,40.46
2018-09-17T19:19:42.646Z,40.53
2018-09-17T19:22:25.958Z,40.02
2018-09-17T19:24:57.130Z,40.28
2018-09-17T19:27:38.420Z,39.84
2018-09-17T19:30:18.405Z,39.89
2018-09-17T19:32:49.751Z,40.40
2018-09-17T19:35:24.698Z,40.35
2018-09-17T19:41:06.460Z,40.60
2018-09-17T19:46:23.053Z,40.14
2018-09-17T19:51:40.665Z,40.27
2018-09-17T19:54:22.096Z,39.88
2018-09-17T19:57:03.761Z,40.45
2018-09-17T19:59:41.474Z,39.07
2018-09-17T20:02:14.792Z,40.06
2018-09-17T20:04:50.623Z,39.95
2018-09-17T20:08:11.277Z,40.09
2018-09-17T20:10:42.625Z,39.86
2018-09-17T20:13:15.358Z,39.41
2018-09-17T20:15:45.852Z,39.90
2018-09-17T20:18:26.245Z,39.87
2018-09-17T20:20:58.283Z,39.04
2018-09-17T20:23:33.500Z,39.24
2018-09-17T20:26:16.971Z,39.68
2018-09-17T20:28:52.535Z,39.28
2018-09-17T20:31:31.022Z,39.24
2018-09-17T20:34:03.771Z,38.97
2018-09-17T20:36:35.310Z,38.95
2018-09-17T20:39:09.297Z,39.67
2018-09-17T20:41:41.417Z,39.08
2018-09-17T20:44:11.714Z,39.10
2018-09-17T20:46:41.553Z,39.33
2018-09-17T20:49:12.415Z,39.22
2018-09-17T20:51:43.482Z,39.87
2018-09-17T20:54:15.789Z,39.33
2018-09-17T20:56:50.118Z,39.50
2018-09-17T20:59:19.877Z,39.76
2018-09-17T21:01:52.031Z,39.47
2018-09-17T21:04:25.524Z,39.09
2018-09-17T21:06:56.645Z,38.77
2018-09-17T21:09:28.018Z,39.97
2018-09-17T21:12:01.756Z,38.87
2018-09-17T21:14:32.223Z,40.10
2018-09-17T21:17:04.518Z,39.82
2018-09-17T21:19:36.334Z,39.83
2018-09-17T21:22:25.337Z,39.92
2018-09-17T21:24:59.786Z,39.65
2018-09-17T21:27:30.023Z,38.96
2018-09-17T21:29:59.529Z,39.24
2018-09-17T21:32:31.344Z,39.82
2018-09-17T21:35:02.616Z,39.54
2018-09-17T21:37:32.564Z,39.13
2018-09-17T21:40:03.492Z,40.06
2018-09-17T21:42:33.034Z,39.63
2018-09-17T21:45:08.752Z,39.29
2018-09-17T21:47:39.895Z,38.90
2018-09-17T21:50:09.537Z,39.38
2018-09-17T21:52:41.497Z,39.37
2018-09-17T21:55:12.456Z,39.69
2018-09-17T21:57:42.237Z,39.48
2018-09-17T22:00:23.485Z,39.12
2018-09-17T22:02:59.484Z,40.41
2018-09-17T22:05:29.282Z,39.96
2018-09-17T22:07:59.914Z,39.58
2018-09-17T22:10:29.447Z,39.33
2018-09-17T22:12:59.467Z,39.52
2018-09-17T22:15:30.408Z,40.41
2018-09-17T22:18:05.967Z,40.08
2018-09-17T22:20:37.221Z,39.71
2018-09-17T22:23:06.750Z,40.02
2018-09-17T22:25:38.471Z,40.21
2018-09-17T22:28:08.754Z,40.07
2018-09-17T22:30:39.660Z,40.06
2018-09-17T22:33:11.247Z,39.70
2018-09-17T22:35:41.399Z,40.83
2018-09-17T22:38:12.397Z,40.42
2018-09-17T22:40:42.350Z,40.51
2018-09-17T22:43:11.936Z,39.70
2018-09-17T22:45:46.472Z,40.22
2018-09-17T22:48:16.271Z,39.80
2018-09-17T22:50:47.059Z,40.36
2018-09-17T22:53:21.099Z,40.42
2018-09-17T22:55:50.567Z,40.53
2018-09-17T22:58:27.143Z,39.67
2018-09-17T23:00:59.578Z,40.64
2018-09-17T23:06:16.097Z,41.14
2018-09-17T23:08:45.976Z,40.14
2018-09-17T23:11:15.371Z,40.33
2018-09-17T23:13:45.289Z,40.04
2018-09-17T23:16:15.273Z,40.52
2018-09-17T23:18:46.387Z,40.88
2018-09-17T23:21:16.339Z,40.65
2018-09-17T23:23:46.028Z,41.13
2018-09-17T23:26:15.811Z,41.65
2018-09-17T23:28:45.709Z,41.55
2018-09-17T23:31:15.546Z,41.86
2018-09-17T23:33:48.255Z,41.67
2018-09-17T23:36:23.801Z,42.16
2018-09-17T23:38:53.432Z,42.70
2018-09-17T23:41:23.204Z,42.97
2018-09-17T23:43:52.652Z,42.82
2018-09-17T23:46:22.564Z,43.65
2018-09-17T23:48:53.496Z,43.41
2018-09-17T23:51:23.640Z,43.06
2018-09-17T23:53:53.384Z,42.98
2018-09-17T23:56:24.710Z,43.79
2018-09-17T23:58:54.136Z,44.04
